createdAt,value
2022-08-08T00:01:10.606Z,100.00
2022-08-08T00:03:53.209Z,100.00
2022-08-08T00:06:45.830Z,100.00
2022-08-08T00:09:23.217Z,100.00
2022-08-08T00:12:08.026Z,100.00
2022-08-08T00:15:00.319Z,100.00
2022-08-08T00:17:58.614Z,100.00
2022-08-08T00:20:39.972Z,100.00
2022-08-08T00:23:17.147Z,100.00
2022-08-08T00:25:51.715Z,100.00
2022-08-08T00:28:35.457Z,100.00
2022-08-08T00:32:21.371Z,100.00
2022-08-08T00:34:57.613Z,100.00
2022-08-08T00:37:47.743Z,100.00
2022-08-08T00:41:08.927Z,100.00
2022-08-08T00:44:12.587Z,100.00
2022-08-08T00:47:14.111Z,100.00
2022-08-08T00:50:29.206Z,100.00
2022-08-08T00:53:15.549Z,100.00
2022-08-08T00:56:29.985Z,100.00
2022-08-08T00:59:46.065Z,100.00
2022-08-08T01:03:59.895Z,100.00
2022-08-08T01:06:27.936Z,100.00
2022-08-08T01:09:36.529Z,100.00
2022-08-08T01:12:43.384Z,100.00
2022-08-08T01:15:54.257Z,100.00
2022-08-08T01:18:54.085Z,100.00
2022-08-08T01:22:10.261Z,100.00
2022-08-08T01:25:01.101Z,100.00
2022-08-08T01:28:11.557Z,100.00
2022-08-08T01:32:13.109Z,100.00
2022-08-08T01:34:58.344Z,100.00
2022-08-08T01:38:11.458Z,100.00
2022-08-08T01:41:00.358Z,100.00
2022-08-08T01:43:45.498Z,100.00
2022-08-08T01:46:52.632Z,100.00
2022-08-08T01:49:47.530Z,100.00
2022-08-08T01:53:06.544Z,100.00
2022-08-08T01:56:27.381Z,100.00
2022-08-08T01:58:47.103Z,100.00
2022-08-08T02:01:59.667Z,100.00
2022-08-08T02:04:30.025Z,100.00
2022-08-08T02:07:05.074Z,100.00
2022-08-08T02:10:03.966Z,100.00
2022-08-08T02:12:51.514Z,100.00
2022-08-08T02:15:34.765Z,100.00
2022-08-08T02:18:14.365Z,100.00
2022-08-08T02:21:08.254Z,100.00
2022-08-08T02:23:45.357Z,100.00
2022-08-08T02:26:22.902Z,100.00
2022-08-08T02:29:14.799Z,100.00
2022-08-08T02:32:08.610Z,100.00
2022-08-08T02:35:10.989Z,100.00
2022-08-08T02:38:25.631Z,100.00
2022-08-08T02:41:59.493Z,100.00
2022-08-08T02:44:39.318Z,100.00
2022-08-08T02:48:00.880Z,100.00
2022-08-08T02:51:12.424Z,100.00
2022-08-08T02:54:23.115Z,100.00
2022-08-08T02:57:40.467Z,100.00
2022-08-08T03:00:50.700Z,100.00
2022-08-08T03:05:03.757Z,100.00
2022-08-08T03:07:41.411Z,100.00
2022-08-08T03:11:13.810Z,100.00
2022-08-08T03:16:00.295Z,100.00
2022-08-08T03:17:25.761Z,100.00
2022-08-08T03:20:10.459Z,100.00
2022-08-08T03:22:56.007Z,100.00
2022-08-08T03:25:35.715Z,100.00
2022-08-08T03:28:09.485Z,100.00
2022-08-08T03:30:40.042Z,100.00
2022-08-08T03:33:56.154Z,100.00
2022-08-08T03:36:16.064Z,100.00
2022-08-08T03:38:58.299Z,100.00
2022-08-08T03:42:26.773Z,100.00
2022-08-08T03:44:35.656Z,100.00
2022-08-08T03:47:19.531Z,100.00
2022-08-08T03:50:00.360Z,100.00
2022-08-08T03:52:37.328Z,100.00
2022-08-08T03:55:55.761Z,100.00
2022-08-08T03:58:32.449Z,100.00
2022-08-08T04:01:23.545Z,100.00
2022-08-08T04:03:58.572Z,100.00
2022-08-08T04:06:34.184Z,100.00
2022-08-08T04:09:11.460Z,100.00
2022-08-08T04:11:58.602Z,100.00
2022-08-08T04:14:44.957Z,100.00
2022-08-08T04:17:45.863Z,100.00
2022-08-08T04:20:05.611Z,100.00
2022-08-08T04:22:38.468Z,100.00
2022-08-08T04:25:13.165Z,100.00
2022-08-08T04:28:02.242Z,100.00
2022-08-08T04:30:44.476Z,100.00
2022-08-08T04:33:15.987Z,100.00
2022-08-08T04:35:50.868Z,100.00
2022-08-08T04:38:22.271Z,100.00
2022-08-08T04:40:55.072Z,100.00
2022-08-08T04:43:32.502Z,100.00
2022-08-08T04:46:20.190Z,100.00
2022-08-08T04:48:52.379Z,100.00
2022-08-08T04:51:28.160Z,100.00
2022-08-08T04:54:39.719Z,100.00
2022-08-08T04:56:59.976Z,100.00
2022-08-08T04:59:30.805Z,100.00
2022-08-08T05:02:00.973Z,100.00
2022-08-08T05:04:30.839Z,100.00
2022-08-08T05:07:00.321Z,100.00
2022-08-08T05:09:29.156Z,100.00
2022-08-08T05:11:58.196Z,100.00
2022-08-08T05:14:34.832Z,100.00
2022-08-08T05:17:09.022Z,100.00
2022-08-08T05:20:11.366Z,100.00
2022-08-08T05:22:36.363Z,100.00
2022-08-08T05:25:05.636Z,100.00
2022-08-08T05:27:41.757Z,100.00
2022-08-08T05:30:17.243Z,100.00
2022-08-08T05:32:59.427Z,100.00
2022-08-08T05:35:35.485Z,100.00
2022-08-08T05:38:32.069Z,100.00
2022-08-08T05:41:09.231Z,100.00
2022-08-08T05:44:03.946Z,100.00
2022-08-08T05:46:34.746Z,100.00
2022-08-08T05:49:11.108Z,100.00
2022-08-08T05:51:49.029Z,100.00
2022-08-08T05:54:27.654Z,100.00
2022-08-08T05:57:16.223Z,100.00
2022-08-08T06:00:25.211Z,100.00
2022-08-08T06:03:13.179Z,100.00
2022-08-08T06:05:56.520Z,100.00
2022-08-08T06:08:34.674Z,100.00
2022-08-08T06:11:08.212Z,100.00
2022-08-08T06:13:47.763Z,100.00
2022-08-08T06:16:27.474Z,100.00
2022-08-08T06:19:24.059Z,100.00
2022-08-08T06:21:57.106Z,100.00
2022-08-08T06:24:53.479Z,100.00
2022-08-08T06:27:33.251Z,98.83
2022-08-08T06:30:07.392Z,97.66
2022-08-08T06:32:47.612Z,97.13
2022-08-08T06:36:06.466Z,97.07
2022-08-08T06:38:14.847Z,96.76
2022-08-08T06:40:52.224Z,97.31
2022-08-08T06:43:33.703Z,97.54
2022-08-08T06:46:13.974Z,96.75
2022-08-08T06:48:48.030Z,95.55
2022-08-08T06:51:20.337Z,94.52
2022-08-08T06:53:55.966Z,94.22
2022-08-08T06:56:34.738Z,92.87
2022-08-08T06:59:09.724Z,91.78
2022-08-08T07:02:17.767Z,90.84
2022-08-08T07:04:47.957Z,89.90
2022-08-08T07:07:39.107Z,89.94
2022-08-08T07:10:13.096Z,88.82
2022-08-08T07:12:47.758Z,88.55
2022-08-08T07:16:03.878Z,88.30
2022-08-08T07:18:35.511Z,86.91
2022-08-08T07:21:18.943Z,86.95
2022-08-08T07:24:03.258Z,87.40
2022-08-08T07:26:43.084Z,87.08
2022-08-08T07:30:02.561Z,87.11
2022-08-08T07:32:17.165Z,86.88
2022-08-08T07:35:01.390Z,86.34
2022-08-08T07:37:55.710Z,86.51
2022-08-08T07:40:35.647Z,87.55
2022-08-08T07:43:12.556Z,85.64
2022-08-08T07:46:05.106Z,85.93
2022-08-08T07:48:38.857Z,85.87
2022-08-08T07:51:23.369Z,84.65
2022-08-08T07:54:05.666Z,82.94
2022-08-08T07:56:50.320Z,81.58
2022-08-08T07:59:23.672Z,79.51
2022-08-08T08:02:37.036Z,79.24
2022-08-08T08:04:52.297Z,77.88
2022-08-08T08:07:31.861Z,77.06
2022-08-08T08:10:05.313Z,76.66
2022-08-08T08:12:43.270Z,75.48
2022-08-08T08:15:21.537Z,75.01
2022-08-08T08:17:59.019Z,74.75
2022-08-08T08:20:31.058Z,74.48
2022-08-08T08:23:03.851Z,73.54
2022-08-08T08:25:43.556Z,74.27
2022-08-08T08:28:23.981Z,74.61
2022-08-08T08:30:58.645Z,75.64
2022-08-08T08:33:28.906Z,75.41
2022-08-08T08:36:19.339Z,74.99
2022-08-08T08:38:52.939Z,74.06
2022-08-08T08:41:31.252Z,74.77
2022-08-08T08:44:13.283Z,73.22
2022-08-08T08:46:47.272Z,71.26
2022-08-08T08:49:19.943Z,69.28
2022-08-08T08:51:54.101Z,70.11
2022-08-08T08:54:26.567Z,70.06
2022-08-08T08:57:03.963Z,69.33
2022-08-08T09:00:01.906Z,67.92
2022-08-08T09:02:41.060Z,69.58
2022-08-08T09:05:28.783Z,67.85
2022-08-08T09:08:12.718Z,67.84
2022-08-08T09:10:48.309Z,68.31
2022-08-08T09:13:25.281Z,66.57
2022-08-08T09:16:03.793Z,66.99
2022-08-08T09:18:36.487Z,65.67
2022-08-08T09:22:00.315Z,63.51
2022-08-08T09:23:56.858Z,61.76
2022-08-08T09:26:40.885Z,60.77
2022-08-08T09:29:25.401Z,59.83
2022-08-08T09:32:05.972Z,60.27
2022-08-08T09:34:51.682Z,62.25
2022-08-08T09:37:58.267Z,64.33
2022-08-08T09:40:35.874Z,63.99
2022-08-08T09:43:41.195Z,63.25
2022-08-08T09:46:25.843Z,63.54
2022-08-08T09:49:04.337Z,63.26
2022-08-08T09:52:06.486Z,62.60
2022-08-08T09:54:42.789Z,65.21
2022-08-08T09:57:17.145Z,65.00
2022-08-08T10:00:21.030Z,63.34
2022-08-08T10:02:45.087Z,64.52
2022-08-08T10:05:22.845Z,64.53
2022-08-08T10:08:00.361Z,64.06
2022-08-08T10:10:32.597Z,65.84
2022-08-08T10:13:14.177Z,65.42
2022-08-08T10:16:00.989Z,62.33
2022-08-08T10:18:33.729Z,63.00
2022-08-08T10:21:22.940Z,63.31
2022-08-08T10:23:58.829Z,61.41
2022-08-08T10:26:57.471Z,62.38
2022-08-08T10:29:44.122Z,61.30
2022-08-08T10:32:37.743Z,60.41
2022-08-08T10:36:09.584Z,59.02
2022-08-08T10:38:08.243Z,59.79
2022-08-08T10:40:39.795Z,59.78
2022-08-08T10:43:10.596Z,62.18
2022-08-08T10:45:57.236Z,59.80
2022-08-08T10:48:56.038Z,58.60
2022-08-08T10:51:26.264Z,60.34
2022-08-08T10:54:01.882Z,59.10
2022-08-08T10:56:35.627Z,58.81
2022-08-08T10:59:09.718Z,58.04
2022-08-08T11:01:40.285Z,56.60
2022-08-08T11:04:12.020Z,54.97
2022-08-08T11:06:42.040Z,49.54
2022-08-08T11:09:21.243Z,54.46
2022-08-08T11:12:06.526Z,54.59
2022-08-08T11:14:54.533Z,54.26
2022-08-08T11:17:59.907Z,57.92
2022-08-08T11:20:18.082Z,57.02
2022-08-08T11:22:49.498Z,51.05
2022-08-08T11:25:52.662Z,52.44
2022-08-08T11:28:29.416Z,51.32
2022-08-08T11:31:03.941Z,51.28
2022-08-08T11:33:53.386Z,49.67
2022-08-08T11:36:29.456Z,50.23
2022-08-08T11:38:59.984Z,49.71
2022-08-08T11:41:35.460Z,49.52
2022-08-08T11:44:08.477Z,49.63
2022-08-08T11:46:38.757Z,47.29
2022-08-08T11:49:11.603Z,48.24
2022-08-08T11:51:49.816Z,48.01
2022-08-08T11:54:46.213Z,44.06
2022-08-08T11:57:27.167Z,40.77
2022-08-08T12:00:02.547Z,45.97
2022-08-08T12:02:54.602Z,43.59
2022-08-08T12:05:34.140Z,43.39
2022-08-08T12:08:04.283Z,45.47
2022-08-08T12:10:34.498Z,46.99
2022-08-08T12:13:09.688Z,47.68
2022-08-08T12:15:50.980Z,50.82
2022-08-08T12:18:24.730Z,49.91
2022-08-08T12:20:58.949Z,48.17
2022-08-08T12:23:42.657Z,46.40
2022-08-08T12:26:27.779Z,44.88
2022-08-08T12:29:25.812Z,43.73
2022-08-08T12:32:13.378Z,44.32
2022-08-08T12:34:48.712Z,43.74
2022-08-08T12:37:22.049Z,43.87
2022-08-08T12:40:02.005Z,45.13
2022-08-08T12:42:33.694Z,46.51
2022-08-08T12:45:53.731Z,47.13
2022-08-08T12:48:09.782Z,48.73
2022-08-08T12:50:49.496Z,48.91
2022-08-08T12:53:28.423Z,43.86
2022-08-08T12:56:17.948Z,49.12
2022-08-08T12:58:50.941Z,48.04
2022-08-08T13:01:24.225Z,46.87
2022-08-08T13:04:19.287Z,44.41
2022-08-08T13:06:55.148Z,44.36
2022-08-08T13:09:43.336Z,43.13
2022-08-08T13:12:30.177Z,42.70
2022-08-08T13:15:02.401Z,43.50
2022-08-08T13:18:08.334Z,43.90
2022-08-08T13:20:27.097Z,41.39
2022-08-08T13:23:37.135Z,48.23
2022-08-08T13:25:50.987Z,49.62
2022-08-08T13:28:32.293Z,48.77
2022-08-08T13:31:03.876Z,47.33
2022-08-08T13:33:42.239Z,46.30
2022-08-08T13:36:12.533Z,44.60
2022-08-08T13:38:42.634Z,44.27
2022-08-08T13:41:15.918Z,43.39
2022-08-08T13:43:49.990Z,43.46
2022-08-08T13:46:26.633Z,45.03
2022-08-08T13:50:33.481Z,45.72
2022-08-08T13:52:01.271Z,46.68
2022-08-08T13:54:32.697Z,48.90
2022-08-08T13:57:04.881Z,48.43
2022-08-08T13:59:48.275Z,49.12
2022-08-08T14:02:21.210Z,49.13
2022-08-08T14:05:00.334Z,48.95
2022-08-08T14:07:42.243Z,47.98
2022-08-08T14:10:17.171Z,47.76
2022-08-08T14:12:47.970Z,46.55
2022-08-08T14:15:31.201Z,44.58
2022-08-08T14:18:35.510Z,44.42
2022-08-08T14:21:02.528Z,39.54
2022-08-08T14:24:07.480Z,42.42
2022-08-08T14:26:33.122Z,43.61
2022-08-08T14:29:06.133Z,44.05
2022-08-08T14:32:09.063Z,44.04
2022-08-08T14:34:38.899Z,43.52
2022-08-08T14:37:09.717Z,42.99
2022-08-08T14:39:48.259Z,43.56
2022-08-08T14:42:26.740Z,43.37
2022-08-08T14:44:58.325Z,43.30
2022-08-08T14:47:30.318Z,43.15
2022-08-08T14:50:15.187Z,43.48
2022-08-08T14:52:58.392Z,44.00
2022-08-08T14:55:41.485Z,44.70
2022-08-08T14:58:16.582Z,45.53
2022-08-08T15:00:50.265Z,46.29
2022-08-08T15:03:19.058Z,46.62
2022-08-08T15:05:54.775Z,45.89
2022-08-08T15:08:34.313Z,44.55
2022-08-08T15:11:10.242Z,44.42
2022-08-08T15:14:01.718Z,43.82
2022-08-08T15:16:34.442Z,43.09
2022-08-08T15:19:05.514Z,44.08
2022-08-08T15:21:37.985Z,43.66
2022-08-08T15:24:16.213Z,43.25
2022-08-08T15:26:52.471Z,43.29
2022-08-08T15:29:22.711Z,42.86
2022-08-08T15:32:19.079Z,41.38
2022-08-08T15:34:42.120Z,43.79
2022-08-08T15:37:10.840Z,43.35
2022-08-08T15:39:43.002Z,43.40
2022-08-08T15:42:18.050Z,43.40
2022-08-08T15:45:00.691Z,43.60
2022-08-08T15:47:31.418Z,43.52
2022-08-08T15:50:01.681Z,43.57
2022-08-08T15:52:33.037Z,43.83
2022-08-08T15:55:03.500Z,43.87
2022-08-08T15:57:35.726Z,43.99
2022-08-08T16:00:25.995Z,44.47
2022-08-08T16:02:59.010Z,45.29
2022-08-08T16:05:35.413Z,45.63
2022-08-08T16:08:08.502Z,45.74
2022-08-08T16:13:21.465Z,45.69
2022-08-08T16:13:42.010Z,45.96
2022-08-08T16:16:17.504Z,45.72
2022-08-08T16:18:56.573Z,45.87
2022-08-08T16:21:32.059Z,46.26
2022-08-08T16:24:02.661Z,47.39
2022-08-08T16:26:36.096Z,47.49
2022-08-08T16:29:07.687Z,47.66
2022-08-08T16:31:40.474Z,48.12
2022-08-08T16:34:09.420Z,48.07
2022-08-08T16:36:38.766Z,47.74
2022-08-08T16:39:28.011Z,48.69
2022-08-08T16:42:01.818Z,48.09
2022-08-08T16:44:33.624Z,48.10
2022-08-08T16:47:40.326Z,47.43
2022-08-08T16:50:14.011Z,49.17
2022-08-08T16:55:24.298Z,49.04
2022-08-08T16:55:55.368Z,49.20
2022-08-08T16:58:26.614Z,50.00
2022-08-08T17:00:57.859Z,48.99
2022-08-08T17:03:59.327Z,49.13
2022-08-08T17:06:36.982Z,49.05
2022-08-08T17:09:05.697Z,49.06
2022-08-08T17:11:54.535Z,49.06
2022-08-08T17:14:34.001Z,49.29
2022-08-08T17:17:04.447Z,49.39
2022-08-08T17:19:41.119Z,49.99
2022-08-08T17:22:10.999Z,49.82
2022-08-08T17:24:41.372Z,49.61
2022-08-08T17:27:10.572Z,49.55
2022-08-08T17:29:43.348Z,49.90
2022-08-08T17:32:12.660Z,49.93
2022-08-08T17:35:51.971Z,50.04
2022-08-08T17:37:32.827Z,50.05
2022-08-08T17:40:05.900Z,50.21
2022-08-08T17:42:46.979Z,50.10
2022-08-08T17:45:23.311Z,50.29
2022-08-08T17:47:56.262Z,50.73
2022-08-08T17:50:26.938Z,51.56
2022-08-08T17:52:56.471Z,51.83
2022-08-08T17:56:06.148Z,52.11
2022-08-08T17:58:18.265Z,52.09
2022-08-08T18:00:56.399Z,52.71
2022-08-08T18:03:26.862Z,52.86
2022-08-08T18:05:55.809Z,53.75
2022-08-08T18:08:38.704Z,53.82
2022-08-08T18:11:14.914Z,53.48
2022-08-08T18:13:47.124Z,54.05
2022-08-08T18:16:23.239Z,54.88
2022-08-08T18:18:56.239Z,54.41
2022-08-08T18:22:00.334Z,55.02
2022-08-08T18:24:19.414Z,55.31
2022-08-08T18:26:56.834Z,55.87
2022-08-08T18:29:29.813Z,55.87
2022-08-08T18:32:03.694Z,56.05
2022-08-08T18:34:37.767Z,56.58
2022-08-08T18:37:08.318Z,57.05
2022-08-08T18:39:41.370Z,56.94
2022-08-08T18:42:16.437Z,57.09
2022-08-08T18:44:53.062Z,57.03
2022-08-08T18:47:28.537Z,57.66
2022-08-08T18:50:03.031Z,57.98
2022-08-08T18:52:34.762Z,58.16
2022-08-08T18:55:09.708Z,58.44
2022-08-08T18:57:44.545Z,58.55
2022-08-08T19:00:19.627Z,58.67
2022-08-08T19:02:57.083Z,59.45
2022-08-08T19:05:30.163Z,59.67
2022-08-08T19:08:01.053Z,59.50
2022-08-08T19:10:31.567Z,59.95
2022-08-08T19:13:00.347Z,60.43
2022-08-08T19:15:34.218Z,60.47
2022-08-08T19:18:32.283Z,61.04
2022-08-08T19:20:56.827Z,60.83
2022-08-08T19:23:26.091Z,61.22
2022-08-08T19:26:26.975Z,61.81
2022-08-08T19:28:45.412Z,61.83
2022-08-08T19:31:17.031Z,62.35
2022-08-08T19:34:04.761Z,63.21
2022-08-08T19:36:37.403Z,62.46
2022-08-08T19:39:09.438Z,62.79
2022-08-08T19:41:38.752Z,62.71
2022-08-08T19:44:12.897Z,62.58
2022-08-08T19:46:56.696Z,62.42
2022-08-08T19:49:26.780Z,62.60
2022-08-08T19:51:55.379Z,63.24
2022-08-08T19:54:24.552Z,63.34
2022-08-08T19:56:53.174Z,63.56
2022-08-08T19:59:22.821Z,63.96
2022-08-08T20:02:02.615Z,64.36
2022-08-08T20:04:34.228Z,64.62
2022-08-08T20:08:30.079Z,64.84
2022-08-08T20:09:56.293Z,65.17
2022-08-08T20:12:31.983Z,65.97
2022-08-08T20:15:14.881Z,66.08
2022-08-08T20:17:48.514Z,66.73
2022-08-08T20:20:22.236Z,66.86
2022-08-08T20:22:53.806Z,67.31
2022-08-08T20:25:29.786Z,67.59
2022-08-08T20:28:06.488Z,67.39
2022-08-08T20:30:55.685Z,67.61
2022-08-08T20:35:58.029Z,68.24
2022-08-08T20:38:32.545Z,68.64
2022-08-08T20:41:05.627Z,69.16
2022-08-08T20:43:49.312Z,69.69
2022-08-08T20:46:25.782Z,70.22
2022-08-08T20:48:58.503Z,70.71
2022-08-08T20:51:32.647Z,70.62
2022-08-08T20:54:14.037Z,70.71
2022-08-08T20:57:04.583Z,70.49
2022-08-08T20:59:41.456Z,70.63
2022-08-08T21:02:12.438Z,70.91
2022-08-08T21:04:43.903Z,72.48
2022-08-08T21:07:46.860Z,71.22
2022-08-08T21:10:12.623Z,71.19
2022-08-08T21:12:44.680Z,71.36
2022-08-08T21:15:16.449Z,71.62
2022-08-08T21:18:07.051Z,71.85
2022-08-08T21:20:36.015Z,71.99
2022-08-08T21:23:09.972Z,72.34
2022-08-08T21:25:42.454Z,72.13
2022-08-08T21:28:16.177Z,72.39
2022-08-08T21:30:49.641Z,72.72
2022-08-08T21:33:21.392Z,73.01
2022-08-08T21:36:17.423Z,73.40
2022-08-08T21:38:40.456Z,73.07
2022-08-08T21:41:09.266Z,73.62
2022-08-08T21:43:58.353Z,73.84
2022-08-08T21:48:07.613Z,73.99
2022-08-08T21:49:19.546Z,74.43
2022-08-08T21:54:33.711Z,74.15
2022-08-08T21:55:02.621Z,74.38
2022-08-08T21:57:41.966Z,74.87
2022-08-08T22:00:14.166Z,74.86
2022-08-08T22:02:48.715Z,75.25
2022-08-08T22:05:18.297Z,75.79
2022-08-08T22:07:49.016Z,75.42
2022-08-08T22:10:32.152Z,75.87
2022-08-08T22:13:17.168Z,76.07
2022-08-08T22:15:58.383Z,76.49
2022-08-08T22:18:31.446Z,76.16
2022-08-08T22:21:14.172Z,76.73
2022-08-08T22:23:50.704Z,77.33
2022-08-08T22:26:29.928Z,77.98
2022-08-08T22:29:13.426Z,77.98
2022-08-08T22:31:58.198Z,78.24
2022-08-08T22:34:32.061Z,78.35
2022-08-08T22:37:00.947Z,78.48
2022-08-08T22:39:45.507Z,78.63
2022-08-08T22:42:24.166Z,78.78
2022-08-08T22:44:56.965Z,79.45
2022-08-08T22:47:38.386Z,79.44
2022-08-08T22:50:26.411Z,79.90
2022-08-08T22:54:19.569Z,80.88
2022-08-08T22:55:59.787Z,80.94
2022-08-08T22:58:34.714Z,81.75
2022-08-08T23:01:26.702Z,82.22
2022-08-08T23:03:55.603Z,83.52
2022-08-08T23:06:25.485Z,83.85
2022-08-08T23:08:58.351Z,84.29
2022-08-08T23:11:30.870Z,84.91
2022-08-08T23:14:21.092Z,85.47
2022-08-08T23:16:59.117Z,85.95
2022-08-08T23:19:31.093Z,86.57
2022-08-08T23:22:04.202Z,86.85
2022-08-08T23:24:36.170Z,86.84
2022-08-08T23:27:05.906Z,87.00
2022-08-08T23:29:35.784Z,87.02
2022-08-08T23:32:06.719Z,87.77
2022-08-08T23:34:39.758Z,87.80
2022-08-08T23:37:24.643Z,88.28
2022-08-08T23:39:55.322Z,89.06
2022-08-08T23:42:29.416Z,89.66
2022-08-08T23:45:00.220Z,89.97
2022-08-08T23:49:00.079Z,90.17
2022-08-08T23:50:30.498Z,90.55
2022-08-08T23:53:03.509Z,90.68
2022-08-08T23:55:38.282Z,91.81
2022-08-08T23:58:31.936Z,92.16
